Time;durP1;ratioP1;P1;durP2;ratioP2;P2;SDS_P1;SDS_P2;PMS_P1;PMS_P2;Temp;Humidity;BMP_temperature;BMP_pressure;BME280_temperature;BME280_humidity;BME280_pressure;Samples;Min_cycle;Max_cycle;Signal;HPM_P1;HPM_P2
2022/05/08 00:02:17;;;;;;;17.08;10.85;;;;;;;;;;4978700;28;20547;-82
2022/05/08 00:04:44;;;;;;;18.38;10.45;;;9.30;99.90;;;;;;4995825;28;20192;-82
2022/05/08 00:07:10;;;;;;;14.65;9.80;;;;;;;;;;4978974;28;20178;-81
2022/05/08 00:09:35;;;;;;;18.80;10.75;;;9.40;99.90;;;;;;4996005;28;20182;-81
2022/05/08 00:12:01;;;;;;;20.83;10.90;;;9.60;99.90;;;;;;4996136;28;20320;-81
2022/05/08 00:14:27;;;;;;;21.00;11.00;;;;;;;;;;4978530;28;20228;-85
2022/05/08 00:16:53;;;;;;;21.60;11.20;;;9.60;99.90;;;;;;4978760;28;20186;-81
2022/05/08 00:19:18;;;;;;;16.35;10.40;;;9.70;99.90;;;;;;4978577;28;20725;-82
2022/05/08 00:21:44;;;;;;;20.40;10.53;;;;;;;;;;4995559;28;20273;-82
2022/05/08 00:24:10;;;;;;;20.57;10.57;;;;;;;;;;4996322;28;20244;-82
2022/05/08 00:26:36;;;;;;;23.20;11.77;;;9.60;99.90;;;;;;4995612;28;20209;-82
2022/05/08 00:29:02;;;;;;;24.97;12.43;;;;;;;;;;4978989;28;20682;-82
2022/05/08 00:31:29;;;;;;;21.63;12.02;;;;;;;;;;4981160;28;20623;-84
2022/05/08 00:33:55;;;;;;;22.17;11.53;;;9.60;99.90;;;;;;5019676;28;20162;-82
2022/05/08 00:36:21;;;;;;;20.70;10.90;;;;;;;;;;4979537;28;20194;-82
2022/05/08 00:38:46;;;;;;;17.03;10.90;;;9.90;99.90;;;;;;4995029;28;20671;-82
2022/05/08 00:41:12;;;;;;;21.53;10.13;;;;;;;;;;4995491;28;20174;-82
2022/05/08 00:43:40;;;;;;;20.37;10.87;;;9.90;99.90;;;;;;4995349;28;20186;-82
2022/05/08 00:46:08;;;;;;;17.07;9.70;;;9.30;99.90;;;;;;4995360;28;20627;-82
2022/05/08 00:48:35;;;;;;;18.45;11.15;;;9.30;99.90;;;;;;4994694;28;20634;-82
2022/05/08 00:51:03;;;;;;;17.57;10.40;;;9.50;99.90;;;;;;4995189;28;20186;-82
2022/05/08 00:53:41;;;;;;;17.47;10.87;;;9.10;99.90;;;;;;4994856;28;20176;-82
2022/05/08 00:56:09;;;;;;;18.87;11.10;;;9.20;99.90;;;;;;4995136;28;20253;-82
2022/05/08 00:58:36;;;;;;;20.10;10.20;;;9.20;99.90;;;;;;4994967;28;20234;-83
2022/05/08 01:01:03;;;;;;;19.37;11.73;;;9.10;99.90;;;;;;4994975;28;20186;-82
2022/05/08 01:03:29;;;;;;;19.30;10.73;;;;;;;;;;4995023;28;20178;-81
2022/05/08 01:05:57;;;;;;;17.87;10.53;;;9.20;99.90;;;;;;4994620;28;20693;-82
2022/05/08 01:08:24;;;;;;;16.57;10.37;;;9.20;99.90;;;;;;4977505;28;20189;-81
2022/05/08 01:10:51;;;;;;;21.47;11.20;;;9.50;99.90;;;;;;4977151;28;20186;-81
2022/05/08 01:13:17;;;;;;;19.90;10.40;;;;;;;;;;4994852;28;20186;-81
2022/05/08 01:15:45;;;;;;;19.37;11.53;;;9.20;99.90;;;;;;4976864;28;20192;-81
2022/05/08 01:18:12;;;;;;;28.90;11.10;;;9.20;99.90;;;;;;4994512;28;20277;-81
2022/05/08 01:20:42;;;;;;;17.67;10.27;;;9.50;99.90;;;;;;4994462;28;20184;-82
2022/05/08 01:23:08;;;;;;;19.53;10.43;;;9.00;99.90;;;;;;4994794;28;20290;-81
2022/05/08 01:25:43;;;;;;;18.93;10.77;;;9.10;99.90;;;;;;4994699;28;20201;-81
2022/05/08 01:28:09;;;;;;;18.33;10.03;;;9.10;99.90;;;;;;4994770;28;20189;-81
2022/05/08 01:30:35;;;;;;;21.37;11.37;;;;;;;;;;4977138;28;20213;-81
2022/05/08 01:33:00;;;;;;;20.07;11.40;;;9.00;99.90;;;;;;4976722;28;20189;-81
2022/05/08 01:35:29;;;;;;;18.90;10.47;;;9.10;99.90;;;;;;4994351;28;20190;-82
2022/05/08 01:37:55;;;;;;;18.07;9.57;;;9.00;99.90;;;;;;4994060;28;20186;-81
2022/05/08 01:40:21;;;;;;;20.87;11.90;;;;;;;;;;4976992;28;20275;-81
2022/05/08 01:42:47;;;;;;;19.03;10.70;;;;;;;;;;4994329;28;20627;-81
2022/05/08 01:45:13;;;;;;;17.13;9.83;;;;;;;;;;4977022;28;20185;-81
2022/05/08 01:50:24;;;;;;;20.57;11.30;;;8.70;99.90;;;;;;4994384;28;20542;-81
2022/05/08 01:52:50;;;;;;;15.50;11.13;;;9.10;99.90;;;;;;4993864;28;20181;-81
2022/05/08 01:55:17;;;;;;;17.30;10.33;;;;;;;;;;4993699;28;20178;-81
2022/05/08 01:57:44;;;;;;;22.27;11.03;;;8.90;99.90;;;;;;4993674;28;20791;-81
2022/05/08 02:00:10;;;;;;;14.90;10.30;;;8.90;99.90;;;;;;4994009;28;20198;-81
2022/05/08 02:02:37;;;;;;;19.23;11.23;;;9.30;99.90;;;;;;4993927;28;20181;-81
2022/05/08 02:05:03;;;;;;;19.27;9.23;;;8.60;99.90;;;;;;4993771;28;20189;-81
2022/05/08 02:07:29;;;;;;;19.37;10.10;;;8.70;99.90;;;;;;4976701;28;20186;-83
2022/05/08 02:09:58;;;;;;;18.83;11.00;;;9.20;99.90;;;;;;4976208;28;20751;-83
2022/05/08 02:12:24;;;;;;;14.93;9.47;;;;;;;;;;4976388;28;20182;-83
2022/05/08 02:14:50;;;;;;;15.53;8.97;;;8.60;99.90;;;;;;4993508;28;20184;-83
2022/05/08 02:17:17;;;;;;;16.33;10.37;;;8.70;99.90;;;;;;4993838;28;20192;-83
2022/05/08 02:19:43;;;;;;;13.63;8.83;;;8.50;99.90;;;;;;4960264;28;20205;-83
2022/05/08 02:22:09;;;;;;;20.43;10.67;;;;;;;;;;4993454;28;20257;-83
2022/05/08 02:24:35;;;;;;;16.33;9.57;;;;;;;;;;4993408;28;20201;-83
2022/05/08 02:27:01;;;;;;;14.77;8.30;;;;;;;;;;4993108;28;20547;-83
2022/05/08 02:29:28;;;;;;;13.93;8.57;;;;;;;;;;4993723;28;20192;-83
2022/05/08 02:31:54;;;;;;;17.17;9.23;;;;;;;;;;4993369;28;20214;-83
2022/05/08 02:34:19;;;;;;;14.03;8.63;;;8.70;99.90;;;;;;4993518;28;20182;-83
2022/05/08 02:36:46;;;;;;;12.33;8.93;;;;;;;;;;4976121;28;20682;-85
2022/05/08 02:39:12;;;;;;;15.03;8.37;;;8.90;99.90;;;;;;4976437;28;20202;-83
2022/05/08 02:41:38;;;;;;;17.50;8.37;;;;;;;;;;4993675;28;20182;-83
2022/05/08 02:44:05;;;;;;;12.00;8.30;;;;;;;;;;4976093;28;20276;-83
2022/05/08 02:46:31;;;;;;;15.23;8.30;;;;;;;;;;4993738;28;20232;-82
2022/05/08 02:48:57;;;;;;;12.87;7.97;;;;;;;;;;4975727;28;20182;-82
2022/05/08 02:51:23;;;;;;;13.90;7.57;;;;;;;;;;4976169;28;20272;-82
2022/05/08 02:53:49;;;;;;;14.80;8.37;;;8.20;99.90;;;;;;4993136;28;20718;-82
2022/05/08 02:59:10;;;;;;;18.00;8.53;;;;;;;;;;4939771;28;20228;-82
2022/05/08 03:01:36;;;;;;;18.63;9.90;;;;;;;;;;4993473;28;20265;-83
2022/05/08 03:04:02;;;;;;;12.87;8.37;;;;;;;;;;4992803;28;20636;-82
2022/05/08 03:06:28;;;;;;;12.50;8.20;;;;;;;;;;4994561;28;20193;-82
2022/05/08 03:08:54;;;;;;;15.07;9.00;;;8.10;99.90;;;;;;4996609;28;20190;-83
2022/05/08 03:11:25;;;;;;;13.97;9.13;;;8.20;99.90;;;;;;4996486;28;20523;-82
2022/05/08 03:13:51;;;;;;;12.47;8.37;;;;;;;;;;4980264;28;20175;-82
2022/05/08 03:16:17;;;;;;;9.83;7.60;;;;;;;;;;4996813;28;20182;-82
2022/05/08 03:18:45;;;;;;;11.83;8.03;;;8.40;99.90;;;;;;4996682;28;20241;-81
2022/05/08 03:21:12;;;;;;;13.20;8.30;;;8.40;99.90;;;;;;4996012;28;20318;-82
2022/05/08 03:23:39;;;;;;;10.80;7.47;;;8.40;99.90;;;;;;5004220;28;20189;-83
2022/05/08 03:26:06;;;;;;;13.53;7.97;;;;;;;;;;4997781;28;20193;-82
2022/05/08 03:28:36;;;;;;;14.07;7.40;;;8.50;99.90;;;;;;5015846;28;20216;-82
2022/05/08 03:31:02;;;;;;;13.23;7.17;;;;;;;;;;5014597;28;20251;-83
2022/05/08 03:33:28;;;;;;;18.83;8.70;;;;;;;;;;5015102;28;20633;-83
2022/05/08 03:35:54;;;;;;;13.33;7.30;;;8.50;99.90;;;;;;5016139;28;20178;-82
2022/05/08 03:38:20;;;;;;;15.40;8.70;;;;;;;;;;5016200;28;20177;-82
2022/05/08 03:40:46;;;;;;;19.80;9.97;;;;;;;;;;4998446;28;20182;-82
2022/05/08 03:43:12;;;;;;;16.27;9.67;;;8.90;99.90;;;;;;4998264;28;20181;-83
2022/05/08 03:45:38;;;;;;;13.63;8.90;;;9.20;99.90;;;;;;5015740;28;20629;-83
2022/05/08 03:48:04;;;;;;;13.10;8.13;;;9.00;99.90;;;;;;5015913;28;20184;-82
2022/05/08 03:50:30;;;;;;;15.47;8.40;;;9.00;99.90;;;;;;4998085;28;20638;-83
2022/05/08 03:52:58;;;;;;;15.27;9.53;;;9.10;99.90;;;;;;4997966;28;20638;-83
2022/05/08 03:55:24;;;;;;;15.40;9.03;;;;;;;;;;5015752;28;20177;-84
2022/05/08 03:57:49;;;;;;;12.60;7.83;;;9.30;99.90;;;;;;5015254;28;20229;-83
2022/05/08 04:00:16;;;;;;;20.57;9.60;;;9.30;99.90;;;;;;4997682;28;20215;-83
2022/05/08 04:02:42;;;;;;;20.10;9.80;;;9.30;99.90;;;;;;5015565;28;20174;-83
2022/05/08 04:05:09;;;;;;;15.23;9.27;;;9.90;99.90;;;;;;5015282;28;20231;-83
2022/05/08 04:07:35;;;;;;;15.43;8.90;;;9.80;99.90;;;;;;5015692;28;20268;-82
2022/05/08 04:10:01;;;;;;;17.73;8.67;;;;;;;;;;4979725;28;20280;-81
2022/05/08 04:12:27;;;;;;;13.87;9.67;;;9.80;99.90;;;;;;5013946;28;20186;-82
2022/05/08 04:14:53;;;;;;;14.63;9.43;;;;;;;;;;5013636;28;20186;-88
2022/05/08 04:17:19;;;;;;;12.77;7.77;;;10.40;99.90;;;;;;5013526;28;20217;-83
2022/05/08 04:19:48;;;;;;;11.57;7.57;;;10.20;99.90;;;;;;4996166;28;20646;-82
2022/05/08 04:24:58;;;;;;;12.37;7.37;;;11.00;99.90;;;;;;5012993;28;20192;-83
2022/05/08 04:27:24;;;;;;;13.40;9.10;;;;;;;;;;4995193;28;20185;-82
2022/05/08 04:29:50;;;;;;;12.50;8.17;;;10.80;99.90;;;;;;5013693;28;20193;-84
2022/05/08 04:32:15;;;;;;;10.52;7.20;;;10.60;99.90;;;;;;5014226;28;20665;-82
2022/05/08 04:34:41;;;;;;;11.05;8.30;;;10.60;99.90;;;;;;5014656;28;20243;-83
2022/05/08 04:37:07;;;;;;;10.15;7.63;;;;;;;;;;5014437;28;20197;-83
2022/05/08 04:39:33;;;;;;;13.35;8.48;;;11.10;99.90;;;;;;5014371;28;20267;-83
2022/05/08 04:41:59;;;;;;;11.95;7.57;;;10.90;99.90;;;;;;5014258;28;20572;-83
2022/05/08 04:44:25;;;;;;;11.93;7.95;;;;;;;;;;4996802;28;20200;-83
2022/05/08 04:46:51;;;;;;;12.50;8.27;;;;;;;;;;5014337;28;20181;-83
2022/05/08 04:49:17;;;;;;;12.77;6.97;;;11.90;99.90;;;;;;5014041;28;20264;-83
2022/05/08 04:51:43;;;;;;;8.65;6.30;;;;;;;;;;5014240;28;20268;-83
2022/05/08 04:54:09;;;;;;;9.00;6.10;;;;;;;;;;4996524;28;21711;-83
2022/05/08 04:56:35;;;;;;;12.18;7.15;;;;;;;;;;5014042;28;20177;-83
2022/05/08 04:59:01;;;;;;;11.63;7.45;;;12.20;99.90;;;;;;5013501;28;20241;-83
2022/05/08 05:01:26;;;;;;;12.77;6.88;;;12.10;99.90;;;;;;4996647;28;20641;-83
2022/05/08 05:03:53;;;;;;;10.65;5.63;;;;;;;;;;4996168;28;20184;-83
2022/05/08 05:06:18;;;;;;;8.73;6.50;;;12.30;99.90;;;;;;5014171;28;20192;-83
2022/05/08 05:08:44;;;;;;;9.20;6.47;;;;;;;;;;5014535;28;20181;-83
2022/05/08 05:11:10;;;;;;;11.30;5.50;;;12.60;99.90;;;;;;5014269;28;20181;-84
2022/05/08 05:13:36;;;;;;;9.80;6.75;;;12.80;99.90;;;;;;5014038;28;20196;-84
2022/05/08 05:16:03;;;;;;;10.70;6.38;;;13.20;99.90;;;;;;5013384;28;20224;-82
2022/05/08 05:18:29;;;;;;;9.98;6.15;;;12.80;99.90;;;;;;5013369;28;20192;-83
2022/05/08 05:20:55;;;;;;;8.50;5.60;;;;;;;;;;5013367;28;20268;-84
2022/05/08 05:23:20;;;;;;;6.82;5.40;;;13.00;99.90;;;;;;5013231;28;20288;-84
2022/05/08 05:25:46;;;;;;;10.30;5.78;;;;;;;;;;4995835;28;20177;-83
2022/05/08 05:28:12;;;;;;;8.68;6.35;;;13.60;99.90;;;;;;4995602;28;20185;-84
2022/05/08 05:30:38;;;;;;;8.63;5.05;;;;;;;;;;4995597;28;20180;-84
2022/05/08 05:33:04;;;;;;;6.05;4.65;;;14.20;99.90;;;;;;5013103;28;20221;-84
2022/05/08 05:35:30;;;;;;;7.20;4.95;;;;;;;;;;4994534;28;20205;-85
2022/05/08 05:37:56;;;;;;;5.20;3.95;;;14.50;99.90;;;;;;5011548;28;20656;-84
2022/05/08 05:40:22;;;;;;;7.38;4.72;;;;;;;;;;5011579;28;20212;-84
2022/05/08 05:42:48;;;;;;;8.98;4.43;;;;;;;;;;5013011;28;20189;-84
2022/05/08 05:45:14;;;;;;;7.47;4.90;;;;;;;;;;5012886;28;20256;-83
2022/05/08 05:47:49;;;;;;;14.65;5.50;;;14.30;99.90;;;;;;5013138;28;20273;-85
2022/05/08 05:50:15;;;;;;;6.18;4.88;;;14.90;99.90;;;;;;5010651;28;20289;-84
2022/05/08 05:52:41;;;;;;;6.47;4.82;;;;;;;;;;5013014;28;20696;-86
2022/05/08 05:55:07;;;;;;;8.88;4.60;;;15.20;99.90;;;;;;4993029;28;20189;-85
2022/05/08 05:57:34;;;;;;;6.95;5.05;;;15.00;99.90;;;;;;4966273;28;20606;-84
2022/05/08 06:00:00;;;;;;;8.60;4.65;;;;;;;;;;5009264;28;20288;-84
2022/05/08 06:02:26;;;;;;;10.63;5.93;;;;;;;;;;5010964;28;20252;-85
2022/05/08 06:04:51;;;;;;;7.30;4.60;;;15.10;99.90;;;;;;5005043;28;20211;-84
2022/05/08 06:07:17;;;;;;;6.55;4.55;;;;;;;;;;4991387;28;20220;-84
2022/05/08 06:09:44;;;;;;;8.55;5.30;;;15.70;99.90;;;;;;5010096;28;20217;-85
2022/05/08 06:12:10;;;;;;;8.00;4.97;;;16.00;99.90;;;;;;5001143;28;20182;-84
2022/05/08 06:14:36;;;;;;;7.97;5.38;;;;;;;;;;4966616;28;20220;-84
2022/05/08 06:17:02;;;;;;;6.75;4.82;;;;;;;;;;4983792;28;20244;-86
2022/05/08 06:19:31;;;;;;;12.55;4.70;;;;;;;;;;5004139;28;20205;-84
2022/05/08 06:21:57;;;;;;;7.32;4.88;;;;;;;;;;4982593;28;20186;-84
2022/05/08 06:24:23;;;;;;;8.85;4.90;;;;;;;;;;4998162;28;20227;-85
2022/05/08 06:26:49;;;;;;;7.38;4.60;;;;;;;;;;5002109;28;20193;-85
2022/05/08 06:29:15;;;;;;;6.57;4.85;;;;;;;;;;4992931;28;20192;-86
2022/05/08 06:31:41;;;;;;;11.30;5.38;;;;;;;;;;4995000;28;20221;-85
2022/05/08 06:34:08;;;;;;;8.85;4.82;;;15.80;99.90;;;;;;4992099;28;20213;-84
2022/05/08 06:36:34;;;;;;;10.10;5.57;;;;;;;;;;4968552;28;20186;-85
2022/05/08 06:39:00;;;;;;;7.07;5.20;;;16.00;99.90;;;;;;4982084;28;20737;-85
2022/05/08 06:41:27;;;;;;;6.78;4.47;;;16.40;99.90;;;;;;4977290;28;20242;-85
2022/05/08 06:43:53;;;;;;;7.68;4.93;;;;;;;;;;4982119;28;20189;-86
2022/05/08 06:46:19;;;;;;;10.23;5.22;;;16.40;99.90;;;;;;4979702;28;20562;-85
2022/05/08 06:48:47;;;;;;;7.53;5.35;;;16.50;99.90;;;;;;5001955;28;20221;-86
2022/05/08 06:51:13;;;;;;;9.32;4.10;;;15.00;99.90;;;;;;5002512;28;20212;-84
2022/05/08 06:53:40;;;;;;;10.57;5.07;;;17.00;99.90;;;;;;5014183;28;20212;-85
2022/05/08 06:56:06;;;;;;;7.35;4.30;;;;;;;;;;4995721;28;20181;-88
2022/05/08 07:01:34;;;;;;;6.47;4.55;;;;;;;;;;5015688;28;20247;-85
2022/05/08 07:01:51;;;;;;;8.52;5.25;;;;;;;;;;5013129;28;20190;-84
2022/05/08 07:04:11;;;;;;;6.68;4.70;;;18.00;99.90;;;;;;5010288;28;20205;-85
2022/05/08 07:06:39;;;;;;;6.30;3.67;;;18.20;99.90;;;;;;5014124;28;20227;-86
2022/05/08 07:09:06;;;;;;;6.47;4.00;;;18.30;99.90;;;;;;4996278;28;20284;-84
2022/05/08 07:11:33;;;;;;;5.22;3.55;;;;;;;;;;4998513;28;20213;-85
2022/05/08 07:14:00;;;;;;;6.05;3.53;;;18.70;99.90;;;;;;5002663;28;20295;-85
2022/05/08 07:16:26;;;;;;;5.35;2.88;;;18.70;99.90;;;;;;5016369;28;20185;-84
2022/05/08 07:18:52;;;;;;;4.78;3.22;;;;;;;;;;5004586;28;20308;-86
2022/05/08 07:21:19;;;;;;;3.83;2.67;;;18.90;99.90;;;;;;4988310;28;20193;-85
2022/05/08 07:23:45;;;;;;;3.85;2.10;;;;;;;;;;4983644;28;20236;-86
2022/05/08 07:26:11;;;;;;;2.30;1.92;;;;;;;;;;4991319;28;20215;-85
2022/05/08 07:28:37;;;;;;;1.58;1.10;;;;;;;;;;4999142;28;20295;-84
2022/05/08 07:31:03;;;;;;;1.75;1.30;;;19.50;96.80;;;;;;4999201;28;20189;-83
2022/05/08 07:33:34;;;;;;;1.55;1.15;;;19.60;96.30;;;;;;4984101;28;20189;-84
2022/05/08 07:36:15;;;;;;;2.22;1.40;;;;;;;;;;4998938;28;20207;-84
2022/05/08 07:38:42;;;;;;;1.65;1.17;;;19.40;95.00;;;;;;4995374;28;20208;-84
2022/05/08 07:41:10;;;;;;;2.20;1.38;;;19.50;88.10;;;;;;4996063;28;20195;-87
2022/05/08 07:43:37;;;;;;;1.88;1.20;;;19.00;95.30;;;;;;4999250;28;20203;-85
2022/05/08 07:46:03;;;;;;;1.55;1.30;;;19.40;92.80;;;;;;4975070;28;20562;-83
2022/05/08 07:48:29;;;;;;;1.40;1.10;;;19.00;92.50;;;;;;4989828;28;20218;-83
2022/05/08 07:50:57;;;;;;;1.92;1.08;;;19.40;93.10;;;;;;4974643;28;20215;-85
2022/05/08 07:53:23;;;;;;;2.15;1.00;;;18.80;92.50;;;;;;4994537;28;20189;-85
2022/05/08 07:55:52;;;;;;;1.30;1.20;;;;;;;;;;4975380;28;20252;-85
2022/05/08 07:58:18;;;;;;;2.60;0.88;;;19.50;93.70;;;;;;4998156;28;20228;-84
2022/05/08 08:00:44;;;;;;;1.88;1.10;;;19.10;92.60;;;;;;4999699;28;20197;-85
2022/05/08 08:03:10;;;;;;;1.92;1.40;;;;;;;;;;4995479;28;20668;-88
2022/05/08 08:05:36;;;;;;;0.93;0.90;;;19.20;97.70;;;;;;4992041;28;20188;-82
2022/05/08 08:08:02;;;;;;;1.48;1.27;;;;;;;;;;5001585;28;20196;-84
2022/05/08 08:10:29;;;;;;;1.73;1.30;;;19.50;92.00;;;;;;4982377;28;20197;-84
2022/05/08 08:12:56;;;;;;;1.63;1.35;;;;;;;;;;4999350;28;20192;-83
2022/05/08 08:15:22;;;;;;;1.50;1.20;;;;;;;;;;5015211;28;20189;-84
2022/05/08 08:17:48;;;;;;;2.33;1.95;;;;;;;;;;5009724;28;20201;-84
2022/05/08 08:20:14;;;;;;;1.92;1.48;;;;;;;;;;5012372;28;20283;-83
2022/05/08 08:22:40;;;;;;;1.38;1.17;;;19.70;78.80;;;;;;4995140;28;20220;-85
2022/05/08 08:25:06;;;;;;;1.40;1.17;;;;;;;;;;4985339;28;20216;-83
2022/05/08 08:27:32;;;;;;;1.92;1.27;;;19.90;85.20;;;;;;5002529;28;20281;-85
2022/05/08 08:29:59;;;;;;;1.55;1.02;;;;;;;;;;4983675;28;20666;-84
2022/05/08 08:32:26;;;;;;;1.45;1.05;;;19.70;83.20;;;;;;4995928;28;20190;-84
2022/05/08 08:34:53;;;;;;;1.25;1.02;;;;;;;;;;4981263;28;20248;-83
2022/05/08 08:37:19;;;;;;;1.08;0.82;;;20.90;75.50;;;;;;4974709;28;20320;-84
2022/05/08 08:39:45;;;;;;;2.15;1.48;;;20.80;84.40;;;;;;4978044;28;20224;-83
2022/05/08 08:42:28;;;;;;;3.53;1.33;;;20.30;84.20;;;;;;4982392;28;20718;-83
2022/05/08 08:48:01;;;;;;;1.33;0.88;;;20.80;72.30;;;;;;5010475;28;20990;-84
2022/05/08 08:50:27;;;;;;;1.98;0.98;;;20.40;80.90;;;;;;5012246;28;20618;-85
2022/05/08 08:52:57;;;;;;;1.42;0.88;;;21.50;86.30;;;;;;5012506;28;20199;-84
2022/05/08 08:55:23;;;;;;;2.90;1.40;;;;;;;;;;5011715;28;20169;-84
2022/05/08 08:57:50;;;;;;;3.42;2.17;;;21.40;73.10;;;;;;4993935;28;20702;-83
2022/05/08 09:00:18;;;;;;;0.93;0.70;;;21.30;93.00;;;;;;4994394;28;20605;-85
2022/05/08 09:02:44;;;;;;;1.10;1.00;;;;;;;;;;5012604;28;20188;-85
2022/05/08 09:05:10;;;;;;;1.30;0.95;;;21.30;73.10;;;;;;4995964;28;20513;-84
2022/05/08 09:07:39;;;;;;;1.73;1.40;;;21.20;85.70;;;;;;4995525;28;20185;-84
2022/05/08 09:10:11;;;;;;;1.52;1.42;;;21.10;87.10;;;;;;5013736;28;20689;-84
2022/05/08 09:12:42;;;;;;;1.60;1.33;;;20.50;88.60;;;;;;4995781;28;20548;-85
2022/05/08 09:15:24;;;;;;;3.47;2.55;;;20.00;90.70;;;;;;5013637;28;20177;-86
2022/05/08 09:17:53;;;;;;;2.08;1.35;;;19.90;74.80;;;;;;4996021;28;20226;-85
2022/05/08 09:20:29;;;;;;;2.75;1.20;;;19.40;77.20;;;;;;5013060;28;20212;-84
2022/05/08 09:22:59;;;;;;;1.40;0.98;;;19.70;77.10;;;;;;4995835;28;20548;-83
2022/05/08 09:25:43;;;;;;;1.73;0.93;;;19.90;76.50;;;;;;5013255;28;20200;-84
2022/05/08 09:28:11;;;;;;;4.03;1.35;;;20.30;73.90;;;;;;4998481;28;20181;-84
2022/05/08 09:30:53;;;;;;;2.92;1.85;;;20.60;75.80;;;;;;5012810;28;20256;-84
2022/05/08 09:33:23;;;;;;;1.77;1.15;;;21.40;85.90;;;;;;4995520;28;20227;-85
2022/05/08 09:35:49;;;;;;;1.42;0.93;;;21.00;79.50;;;;;;4995942;28;20205;-85
2022/05/08 09:38:15;;;;;;;1.48;1.23;;;;;;;;;;5013134;28;20216;-84
2022/05/08 09:40:41;;;;;;;1.50;0.90;;;;;;;;;;5012878;28;20212;-85
2022/05/08 09:43:27;;;;;;;1.33;0.90;;;21.40;67.40;;;;;;5013285;28;20177;-84
2022/05/08 09:45:57;;;;;;;0.88;0.80;;;21.70;81.50;;;;;;5013425;28;20161;-84
2022/05/08 09:48:28;;;;;;;1.25;0.90;;;22.00;65.20;;;;;;5013450;28;20177;-85
2022/05/08 09:51:11;;;;;;;0.90;0.90;;;21.80;63.10;;;;;;5013675;28;20204;-86
2022/05/08 09:53:39;;;;;;;1.15;0.80;;;21.50;64.00;;;;;;5012749;28;20171;-86
2022/05/08 09:56:07;;;;;;;1.80;1.02;;;21.30;66.10;;;;;;5013418;28;20169;-87
2022/05/08 09:58:34;;;;;;;0.82;0.80;;;21.20;63.30;;;;;;4994761;28;20240;-86
2022/05/08 10:01:00;;;;;;;0.82;0.82;;;21.00;62.30;;;;;;5013013;28;20235;-86
2022/05/08 10:03:26;;;;;;;2.67;1.10;;;;;;;;;;4995797;28;20189;-86
2022/05/08 10:05:53;;;;;;;1.48;0.88;;;20.70;76.60;;;;;;5013512;28;20634;-86
2022/05/08 10:08:47;;;;;;;2.75;0.93;;;21.10;63.80;;;;;;5012948;28;20181;-86
2022/05/08 10:14:01;;;;;;;1.73;0.90;;;21.60;62.90;;;;;;5013683;28;20204;-87
2022/05/08 10:16:57;;;;;;;2.55;1.20;;;21.10;73.40;;;;;;4995255;28;20188;-86
2022/05/08 10:19:26;;;;;;;1.70;1.15;;;21.50;75.00;;;;;;5012352;28;20193;-85
2022/05/08 10:22:05;;;;;;;1.73;1.10;;;21.50;75.80;;;;;;4995779;28;20204;-84
2022/05/08 10:24:39;;;;;;;0.70;0.70;;;20.90;72.10;;;;;;5016231;28;20223;-86
2022/05/08 10:27:09;;;;;;;0.88;0.70;;;20.90;71.30;;;;;;4997677;28;20230;-85
2022/05/08 10:29:35;;;;;;;1.15;0.80;;;20.50;66.10;;;;;;5014045;28;20177;-85
2022/05/08 10:32:01;;;;;;;2.97;2.03;;;;;;;;;;4995129;28;20199;-86
2022/05/08 10:34:34;;;;;;;0.80;0.70;;;20.70;83.30;;;;;;4996078;28;20177;-85
2022/05/08 10:37:12;;;;;;;0.80;0.80;;;20.80;87.40;;;;;;5011643;28;20826;-84
2022/05/08 10:39:48;;;;;;;1.10;0.90;;;20.50;74.10;;;;;;4995136;28;20221;-86
2022/05/08 10:42:29;;;;;;;2.17;1.02;;;21.30;84.60;;;;;;4996983;28;20193;-86
2022/05/08 10:44:56;;;;;;;2.10;0.90;;;20.70;67.90;;;;;;5013015;28;20256;-86
2022/05/08 10:47:37;;;;;;;0.80;0.80;;;20.60;68.00;;;;;;5015155;28;20193;-86
2022/05/08 10:50:05;;;;;;;2.63;1.02;;;20.60;68.80;;;;;;5012042;28;20184;-82
2022/05/08 10:52:32;;;;;;;1.58;1.40;;;20.60;67.80;;;;;;4994940;28;20424;-84
2022/05/08 10:55:04;;;;;;;1.17;0.85;;;20.40;84.10;;;;;;5020012;28;20180;-87
2022/05/08 10:57:34;;;;;;;1.45;0.90;;;20.60;83.60;;;;;;5007728;28;20225;-83
2022/05/08 11:00:03;;;;;;;1.85;1.10;;;20.70;66.70;;;;;;5018895;28;20201;-87
2022/05/08 11:02:54;;;;;;;2.08;1.00;;;20.60;67.50;;;;;;5015870;28;20192;-86
2022/05/08 11:05:28;;;;;;;1.55;1.20;;;20.60;67.70;;;;;;4999413;28;20174;-85
2022/05/08 11:07:54;;;;;;;1.83;1.15;;;;;;;;;;5013502;28;20247;-85
2022/05/08 11:10:30;;;;;;;1.75;1.20;;;20.70;69.30;;;;;;5013317;28;20181;-82
2022/05/08 11:12:59;;;;;;;2.13;0.90;;;20.40;83.10;;;;;;5011799;28;20173;-83
2022/05/08 11:15:26;;;;;;;2.70;1.10;;;20.70;68.30;;;;;;4996873;28;20667;-87
2022/05/08 11:18:02;;;;;;;2.83;0.93;;;20.60;81.60;;;;;;5014612;28;20173;-82
2022/05/08 11:20:28;;;;;;;1.33;0.93;;;;;;;;;;4998198;28;20192;-86
2022/05/08 11:22:58;;;;;;;2.03;1.17;;;20.20;82.90;;;;;;5000980;28;20688;-87
2022/05/08 11:25:24;;;;;;;2.67;1.10;;;21.00;85.80;;;;;;4999972;28;20185;-87
2022/05/08 11:27:54;;;;;;;2.17;1.58;;;20.70;70.40;;;;;;5001863;28;20193;-87
2022/05/08 11:30:35;;;;;;;1.83;1.50;;;20.80;85.50;;;;;;5017495;28;20588;-86
2022/05/08 11:36:06;;;;;;;1.92;1.75;;;20.70;94.10;;;;;;5016140;28;20219;-84
2022/05/08 11:38:48;;;;;;;1.92;1.50;;;20.50;87.70;;;;;;4998821;28;20184;-84
2022/05/08 11:41:22;;;;;;;1.95;1.30;;;20.30;82.60;;;;;;4983026;28;20181;-85
2022/05/08 11:43:51;;;;;;;2.47;1.40;;;20.30;88.20;;;;;;5017943;28;20189;-84
2022/05/08 11:46:19;;;;;;;1.80;1.30;;;20.80;71.10;;;;;;4999215;28;20295;-84
2022/05/08 11:48:47;;;;;;;1.75;1.33;;;20.80;69.70;;;;;;4998894;28;20272;-84
2022/05/08 11:51:23;;;;;;;2.13;1.42;;;20.70;70.70;;;;;;5016740;28;20227;-85
2022/05/08 11:53:50;;;;;;;2.10;1.65;;;20.80;70.40;;;;;;5016861;28;20235;-86
2022/05/08 11:56:38;;;;;;;2.00;1.40;;;20.90;85.50;;;;;;5016791;28;20185;-84
2022/05/08 11:59:14;;;;;;;2.28;1.48;;;21.00;71.10;;;;;;4993866;28;20229;-83
2022/05/08 12:01:48;;;;;;;1.98;1.42;;;21.00;70.80;;;;;;5019984;28;20232;-84
2022/05/08 12:04:26;;;;;;;1.73;1.33;;;20.50;83.00;;;;;;5017768;28;20161;-85
2022/05/08 12:06:59;;;;;;;1.75;1.15;;;20.50;71.10;;;;;;5016740;28;20177;-85
2022/05/08 12:09:28;;;;;;;1.25;1.00;;;20.60;81.60;;;;;;5001620;28;20275;-85
2022/05/08 12:11:55;;;;;;;1.77;1.35;;;;;;;;;;5017190;28;20174;-84
2022/05/08 12:14:31;;;;;;;1.52;1.17;;;20.60;66.10;;;;;;5016701;28;20265;-85
2022/05/08 12:17:02;;;;;;;1.83;1.38;;;20.70;91.20;;;;;;4968120;28;20177;-84
2022/05/08 12:19:28;;;;;;;1.45;1.25;;;;;;;;;;4997790;28;20213;-85
2022/05/08 12:21:55;;;;;;;2.05;1.48;;;;;;;;;;5017347;28;20173;-84
2022/05/08 12:24:22;;;;;;;1.92;1.48;;;21.00;68.60;;;;;;4997470;28;20240;-85
2022/05/08 12:26:49;;;;;;;2.00;1.27;;;20.20;80.40;;;;;;5011612;28;20173;-84
2022/05/08 12:29:19;;;;;;;2.67;1.70;;;20.60;68.30;;;;;;4998258;28;20185;-83
2022/05/08 12:31:45;;;;;;;2.95;1.00;;;;;;;;;;4996990;28;20200;-86
2022/05/08 12:34:13;;;;;;;1.92;1.20;;;20.60;85.50;;;;;;5015483;28;20564;-84
2022/05/08 12:36:40;;;;;;;5.38;2.00;;;20.40;71.30;;;;;;5014499;28;20177;-84
2022/05/08 12:39:07;;;;;;;2.80;2.13;;;20.30;73.50;;;;;;4996238;28;20251;-86
2022/05/08 12:41:33;;;;;;;2.97;2.03;;;;;;;;;;4997632;28;20333;-83
2022/05/08 12:44:00;;;;;;;3.40;2.38;;;20.00;76.30;;;;;;4981525;28;20192;-83
2022/05/08 12:46:27;;;;;;;3.38;1.98;;;;;;;;;;5014843;28;20264;-82
2022/05/08 12:48:53;;;;;;;5.60;2.38;;;;;;;;;;5014734;28;20216;-83
2022/05/08 12:51:19;;;;;;;3.92;2.45;;;;;;;;;;4997933;28;20236;-83
2022/05/08 12:53:45;;;;;;;2.30;2.10;;;;;;;;;;5015436;28;20189;-86
2022/05/08 12:56:11;;;;;;;1.85;1.60;;;;;;;;;;5015584;28;20207;-84
2022/05/08 13:01:21;;;;;;;3.15;2.00;;;;;;;;;;5014427;28;20304;-84
2022/05/08 13:03:48;;;;;;;3.50;2.42;;;20.10;90.20;;;;;;5014830;28;20634;-83
2022/05/08 13:06:14;;;;;;;3.40;2.13;;;20.20;95.10;;;;;;4981678;28;20189;-85
2022/05/08 13:08:40;;;;;;;2.58;2.30;;;;;;;;;;5015676;28;20185;-84
2022/05/08 13:11:06;;;;;;;4.20;2.80;;;;;;;;;;4998497;28;20174;-85
2022/05/08 13:13:35;;;;;;;4.30;2.78;;;;;;;;;;5017121;28;20192;-87
2022/05/08 13:16:00;;;;;;;4.75;2.55;;;20.20;83.50;;;;;;5000203;28;20537;-85
2022/05/08 13:18:26;;;;;;;2.83;2.38;;;;;;;;;;5016041;28;20185;-84
2022/05/08 13:20:52;;;;;;;4.53;2.95;;;20.50;91.80;;;;;;5014840;28;20232;-84
2022/05/08 13:23:18;;;;;;;2.90;2.42;;;;;;;;;;4999746;28;20181;-84
2022/05/08 13:25:43;;;;;;;4.22;3.20;;;20.00;89.90;;;;;;4984295;28;20187;-85
2022/05/08 13:28:09;;;;;;;2.72;2.20;;;20.40;88.00;;;;;;5015395;28;20173;-85
2022/05/08 13:30:35;;;;;;;2.30;2.10;;;;;;;;;;4999206;28;20313;-85
2022/05/08 13:33:02;;;;;;;2.17;1.83;;;;;;;;;;4981871;28;20285;-85
2022/05/08 13:35:28;;;;;;;2.33;2.05;;;;;;;;;;4998070;28;20181;-84
2022/05/08 13:37:54;;;;;;;5.20;2.50;;;;;;;;;;4980772;28;20275;-83
2022/05/08 13:40:20;;;;;;;3.17;2.22;;;;;;;;;;5014926;28;20295;-84
2022/05/08 13:42:45;;;;;;;1.90;1.38;;;20.80;84.00;;;;;;5002127;28;20181;-82
2022/05/08 13:45:12;;;;;;;2.55;1.73;;;;;;;;;;5019261;28;20189;-85
2022/05/08 13:47:38;;;;;;;8.38;2.35;;;;;;;;;;4981059;28;20596;-81